createdAt,value
2022-12-04T00:02:20.154Z,79.18
2022-12-04T00:04:48.148Z,79.42
2022-12-04T00:07:16.111Z,79.68
2022-12-04T00:09:44.544Z,79.18
2022-12-04T00:12:12.472Z,79.06
2022-12-04T00:15:16.586Z,79.12
2022-12-04T00:17:29.920Z,79.39
2022-12-04T00:19:57.891Z,79.14
2022-12-04T00:22:27.612Z,78.52
2022-12-04T00:24:55.485Z,79.16
2022-12-04T00:27:27.123Z,79.16
2022-12-04T00:29:56.872Z,79.23
2022-12-04T00:32:27.720Z,79.12
2022-12-04T00:34:55.681Z,79.50
2022-12-04T00:37:23.663Z,78.73
2022-12-04T00:39:52.637Z,79.23
2022-12-04T00:42:20.819Z,79.22
2022-12-04T00:44:48.969Z,79.26
2022-12-04T00:47:19.608Z,79.58
2022-12-04T00:49:47.807Z,79.64
2022-12-04T00:52:16.177Z,79.37
2022-12-04T00:54:44.235Z,79.14
2022-12-04T00:57:12.474Z,78.77
2022-12-04T00:59:40.747Z,79.07
2022-12-04T01:02:08.982Z,79.03
2022-12-04T01:04:38.298Z,79.71
2022-12-04T01:07:06.502Z,79.76
2022-12-04T01:09:34.940Z,79.13
2022-12-04T01:12:02.853Z,78.80
2022-12-04T01:14:30.773Z,79.13
2022-12-04T01:16:58.849Z,79.13
2022-12-04T01:19:26.775Z,79.60
2022-12-04T01:21:56.352Z,79.32
2022-12-04T01:24:24.279Z,79.31
2022-12-04T01:26:52.331Z,79.62
2022-12-04T01:29:20.180Z,79.92
2022-12-04T01:31:48.235Z,79.28
2022-12-04T01:34:16.220Z,80.68
2022-12-04T01:36:44.121Z,80.46
2022-12-04T01:39:13.590Z,80.69
2022-12-04T01:41:41.689Z,81.12
2022-12-04T01:44:17.169Z,80.71
2022-12-04T01:46:46.445Z,81.01
2022-12-04T01:49:18.638Z,81.49
2022-12-04T01:51:49.717Z,81.22
2022-12-04T01:54:28.479Z,81.44
2022-12-04T01:57:00.839Z,80.48
2022-12-04T01:59:34.620Z,80.64
2022-12-04T02:02:05.890Z,81.26
2022-12-04T02:04:35.444Z,80.79
2022-12-04T02:07:03.807Z,80.32
2022-12-04T02:09:34.451Z,81.22
2022-12-04T02:12:09.573Z,80.86
2022-12-04T02:14:45.737Z,80.47
2022-12-04T02:17:21.644Z,81.20
2022-12-04T02:20:01.404Z,80.98
2022-12-04T02:22:43.504Z,80.66
2022-12-04T02:25:23.559Z,80.48
2022-12-04T02:28:13.872Z,78.66
2022-12-04T02:30:44.294Z,80.19
2022-12-04T02:33:19.142Z,80.69
2022-12-04T02:35:51.194Z,80.83
2022-12-04T02:38:23.712Z,80.33
2022-12-04T02:40:58.139Z,80.78
2022-12-04T02:43:31.357Z,79.86
2022-12-04T02:46:04.019Z,81.00
2022-12-04T02:48:35.361Z,80.81
2022-12-04T02:51:07.861Z,81.20
2022-12-04T02:53:41.315Z,80.74
2022-12-04T02:56:13.125Z,81.40
2022-12-04T02:58:48.177Z,81.42
2022-12-04T03:01:21.895Z,80.86
2022-12-04T03:03:54.249Z,81.62
2022-12-04T03:06:24.441Z,80.66
2022-12-04T03:08:57.125Z,79.78
2022-12-04T03:11:27.447Z,78.92
2022-12-04T03:14:01.829Z,79.04
2022-12-04T03:16:34.226Z,79.17
2022-12-04T03:19:06.753Z,79.71
2022-12-04T03:21:41.304Z,80.14
2022-12-04T03:24:15.957Z,79.44
2022-12-04T03:26:47.811Z,80.39
2022-12-04T03:29:21.586Z,81.02
2022-12-04T03:31:55.562Z,80.90
2022-12-04T03:34:29.235Z,81.39
2022-12-04T03:37:02.838Z,81.15
2022-12-04T03:39:39.158Z,80.40
2022-12-04T03:42:14.217Z,80.52
2022-12-04T03:44:48.566Z,80.54
2022-12-04T03:47:21.917Z,80.96
2022-12-04T03:49:58.523Z,80.58
2022-12-04T03:52:33.414Z,80.77
2022-12-04T03:55:05.687Z,80.66
2022-12-04T03:57:40.194Z,80.67
2022-12-04T04:00:13.072Z,80.48
2022-12-04T04:02:45.963Z,81.03
2022-12-04T04:05:15.126Z,81.12
2022-12-04T04:07:47.861Z,81.10
2022-12-04T04:10:18.056Z,80.63
2022-12-04T04:13:11.983Z,80.92
2022-12-04T04:16:03.698Z,79.86
2022-12-04T04:18:50.987Z,80.87
2022-12-04T04:21:41.730Z,81.21
2022-12-04T04:24:17.615Z,81.37
2022-12-04T04:26:47.718Z,81.01
2022-12-04T04:29:16.418Z,81.27
2022-12-04T04:31:51.380Z,81.23
2022-12-04T04:34:25.886Z,81.27
2022-12-04T04:37:00.514Z,81.09
2022-12-04T04:39:36.279Z,81.09
2022-12-04T04:42:12.340Z,80.72
2022-12-04T04:44:46.050Z,80.96
2022-12-04T04:47:22.286Z,81.53
2022-12-04T04:49:54.504Z,81.24
2022-12-04T04:52:24.688Z,80.97
2022-12-04T04:54:52.597Z,80.94
2022-12-04T04:57:28.428Z,80.25
2022-12-04T04:59:56.889Z,80.55
2022-12-04T05:02:28.205Z,80.91
2022-12-04T05:04:56.702Z,80.49
2022-12-04T05:07:24.578Z,81.12
2022-12-04T05:09:52.515Z,80.83
2022-12-04T05:12:20.466Z,80.67
2022-12-04T05:14:48.842Z,80.45
2022-12-04T05:17:17.218Z,80.18
2022-12-04T05:19:56.869Z,79.40
2022-12-04T05:22:27.694Z,79.75
2022-12-04T05:24:55.859Z,79.94
2022-12-04T05:27:24.703Z,80.90
2022-12-04T05:29:54.112Z,80.10
2022-12-04T05:32:22.818Z,81.17
2022-12-04T05:34:53.438Z,80.71
2022-12-04T05:37:22.080Z,80.92
2022-12-04T05:39:50.199Z,80.33
2022-12-04T05:42:18.496Z,80.04
2022-12-04T05:44:46.526Z,81.15
2022-12-04T05:47:14.769Z,81.11
2022-12-04T05:49:42.754Z,80.92
2022-12-04T05:52:12.225Z,81.79
2022-12-04T05:54:40.630Z,81.36
2022-12-04T05:57:10.000Z,80.87
2022-12-04T05:59:38.149Z,81.04
2022-12-04T06:02:06.128Z,80.69
2022-12-04T06:04:34.249Z,81.34
2022-12-04T06:07:02.069Z,80.65
2022-12-04T06:09:31.308Z,80.69
2022-12-04T06:11:59.491Z,81.37
2022-12-04T06:14:27.419Z,80.97
2022-12-04T06:16:55.424Z,80.57
2022-12-04T06:19:24.465Z,81.33
2022-12-04T06:21:54.419Z,81.73
2022-12-04T06:24:23.920Z,80.66
2022-12-04T06:27:26.066Z,80.59
2022-12-04T06:29:45.688Z,80.30
2022-12-04T06:32:18.008Z,80.92
2022-12-04T06:34:51.928Z,80.20
2022-12-04T06:37:20.313Z,80.13
2022-12-04T06:39:48.740Z,81.34
2022-12-04T06:42:18.461Z,80.63
2022-12-04T06:44:46.647Z,81.07
2022-12-04T06:47:14.826Z,80.79
2022-12-04T06:49:47.084Z,80.43
2022-12-04T06:52:15.869Z,80.51
2022-12-04T06:54:44.202Z,80.83
2022-12-04T06:57:12.223Z,81.21
2022-12-04T06:59:41.601Z,80.29
2022-12-04T07:02:10.597Z,80.11
2022-12-04T07:04:38.551Z,80.38
2022-12-04T07:07:06.454Z,80.64
2022-12-04T07:09:34.381Z,80.51
2022-12-04T07:12:02.720Z,80.71
2022-12-04T07:14:30.610Z,80.10
2022-12-04T07:17:01.588Z,80.52
2022-12-04T07:19:30.895Z,80.81
2022-12-04T07:21:59.163Z,81.19
2022-12-04T07:24:27.612Z,81.60
2022-12-04T07:26:55.530Z,81.22
2022-12-04T07:29:26.309Z,81.40
2022-12-04T07:31:54.522Z,80.80
2022-12-04T07:34:23.917Z,80.88
2022-12-04T07:36:57.826Z,80.71
2022-12-04T07:39:29.449Z,80.80
2022-12-04T07:41:57.529Z,80.15
2022-12-04T07:44:25.776Z,80.66
2022-12-04T07:46:53.717Z,80.35
2022-12-04T07:49:23.541Z,81.07
2022-12-04T07:51:51.444Z,81.40
2022-12-04T07:54:19.643Z,80.72
2022-12-04T07:56:47.527Z,79.80
2022-12-04T07:59:15.332Z,81.10
2022-12-04T08:01:43.240Z,81.47
2022-12-04T08:04:12.018Z,79.92
2022-12-04T08:06:41.692Z,80.35
2022-12-04T08:09:21.346Z,80.83
2022-12-04T08:11:49.329Z,81.23
2022-12-04T08:14:17.311Z,80.80
2022-12-04T08:16:49.663Z,80.85
2022-12-04T08:19:20.405Z,81.18
2022-12-04T08:21:49.740Z,81.94
2022-12-04T08:24:17.860Z,80.83
2022-12-04T08:26:45.994Z,81.30
2022-12-04T08:29:13.863Z,81.29
2022-12-04T08:31:41.826Z,80.53
2022-12-04T08:34:13.097Z,80.81
2022-12-04T08:43:27.488Z,81.15
2022-12-04T08:46:41.141Z,81.69
2022-12-04T08:52:35.967Z,81.31
2022-12-04T08:55:17.325Z,81.35
2022-12-04T08:57:50.149Z,81.85
2022-12-04T09:00:20.763Z,81.70
2022-12-04T09:02:52.109Z,82.04
2022-12-04T09:05:21.786Z,81.81
2022-12-04T09:07:50.577Z,82.33
2022-12-04T09:10:20.449Z,81.70
2022-12-04T09:12:48.530Z,81.57
2022-12-04T09:15:16.492Z,81.18
2022-12-04T09:17:44.676Z,81.77
2022-12-04T09:20:14.973Z,81.85
2022-12-04T09:23:02.709Z,81.71
2022-12-04T09:25:33.738Z,81.84
2022-12-04T09:28:02.887Z,82.19
2022-12-04T09:30:33.199Z,81.94
2022-12-04T09:33:03.706Z,81.97
2022-12-04T09:35:31.445Z,81.95
2022-12-04T09:37:59.251Z,81.32
2022-12-04T09:40:37.211Z,81.41
2022-12-04T09:43:17.245Z,80.64
2022-12-04T09:45:49.742Z,81.29
2022-12-04T09:48:20.886Z,81.33
2022-12-04T09:50:50.086Z,81.96
2022-12-04T09:53:23.721Z,80.87
2022-12-04T09:55:56.330Z,81.36
2022-12-04T09:58:29.816Z,81.53
2022-12-04T10:00:58.515Z,81.23
2022-12-04T10:03:29.535Z,80.45
2022-12-04T10:06:06.273Z,80.77
2022-12-04T10:08:37.233Z,80.05
2022-12-04T10:11:13.724Z,80.63
2022-12-04T10:13:57.930Z,80.81
2022-12-04T10:16:34.584Z,80.39
2022-12-04T10:19:09.879Z,80.45
2022-12-04T10:21:49.658Z,79.95
2022-12-04T10:24:27.223Z,81.32
2022-12-04T10:26:59.775Z,81.02
2022-12-04T10:29:32.314Z,81.34
2022-12-04T10:32:14.899Z,81.36
2022-12-04T10:34:45.963Z,81.10
2022-12-04T10:37:15.685Z,81.31
2022-12-04T10:39:49.314Z,81.01
2022-12-04T10:42:26.720Z,80.02
2022-12-04T10:44:56.727Z,80.34
2022-12-04T10:47:25.797Z,80.66
2022-12-04T10:50:06.912Z,79.11
2022-12-04T10:52:35.966Z,79.49
2022-12-04T10:55:04.409Z,79.70
2022-12-04T10:57:40.868Z,79.32
2022-12-04T11:00:26.991Z,79.08
2022-12-04T11:02:56.601Z,78.91
2022-12-04T11:05:28.034Z,79.19
2022-12-04T11:07:57.372Z,79.40
2022-12-04T11:10:31.940Z,80.14
2022-12-04T11:13:03.112Z,79.89
2022-12-04T11:15:35.767Z,79.64
2022-12-04T11:18:19.314Z,79.79
2022-12-04T11:20:54.595Z,79.44
2022-12-04T11:23:23.415Z,79.87
2022-12-04T11:25:53.795Z,79.34
2022-12-04T11:28:41.238Z,79.27
2022-12-04T11:31:18.377Z,79.56
2022-12-04T11:33:49.442Z,79.66
2022-12-04T11:36:21.970Z,79.59
2022-12-04T11:38:52.052Z,80.02
2022-12-04T11:41:28.725Z,79.28
2022-12-04T11:44:00.737Z,78.98
2022-12-04T11:46:32.668Z,78.39
2022-12-04T11:49:03.035Z,78.89
2022-12-04T11:51:44.319Z,79.29
2022-12-04T11:54:24.870Z,79.31
2022-12-04T11:57:04.784Z,79.69
2022-12-04T11:59:48.035Z,79.00
2022-12-04T12:02:35.211Z,79.40
2022-12-04T12:05:43.965Z,78.88
2022-12-04T12:08:22.126Z,77.87
2022-12-04T12:10:59.759Z,77.98
2022-12-04T12:13:35.762Z,78.60
2022-12-04T12:16:10.909Z,78.11
2022-12-04T12:19:09.540Z,78.42
2022-12-04T12:21:54.536Z,79.31
2022-12-04T12:24:28.179Z,78.71
2022-12-04T12:27:11.390Z,79.17
2022-12-04T12:29:51.524Z,78.98
2022-12-04T12:32:31.433Z,78.88
2022-12-04T12:35:02.077Z,79.19
2022-12-04T12:37:39.369Z,79.68
2022-12-04T12:40:14.278Z,79.10
2022-12-04T12:42:55.043Z,78.87
2022-12-04T12:45:31.991Z,79.12
2022-12-04T12:48:06.455Z,79.30
2022-12-04T12:50:43.501Z,78.57
2022-12-04T12:53:16.457Z,78.66
2022-12-04T12:55:48.882Z,79.08
2022-12-04T12:58:20.056Z,79.17
2022-12-04T13:01:00.731Z,79.12
2022-12-04T13:03:39.890Z,79.03
2022-12-04T13:06:17.076Z,78.59
2022-12-04T13:08:58.141Z,79.41
2022-12-04T13:11:31.210Z,79.09
2022-12-04T13:14:04.603Z,78.59
2022-12-04T13:16:45.357Z,78.46
2022-12-04T13:19:23.785Z,78.93
2022-12-04T13:25:48.848Z,78.40
2022-12-04T13:28:31.511Z,79.41
2022-12-04T13:31:11.255Z,79.70
2022-12-04T13:33:53.374Z,78.98
2022-12-04T13:36:38.342Z,78.85
2022-12-04T13:39:29.526Z,80.00
2022-12-04T13:41:59.730Z,80.08
2022-12-04T13:44:37.029Z,79.41
2022-12-04T13:47:18.096Z,79.84
2022-12-04T13:49:46.174Z,80.29
2022-12-04T13:52:24.272Z,79.94
2022-12-04T13:55:00.199Z,79.57
2022-12-04T13:57:29.638Z,80.48
2022-12-04T14:00:28.943Z,80.68
2022-12-04T14:03:01.906Z,80.17
2022-12-04T14:05:42.759Z,79.58
2022-12-04T14:08:27.781Z,80.10
2022-12-04T14:11:04.559Z,80.20
2022-12-04T14:13:45.420Z,80.41
2022-12-04T14:16:22.059Z,79.40
2022-12-04T14:18:52.319Z,80.11
2022-12-04T14:21:20.707Z,80.55
2022-12-04T14:23:49.157Z,80.35
2022-12-04T14:26:29.315Z,80.91
2022-12-04T14:29:34.184Z,80.51
2022-12-04T14:32:10.799Z,80.12
2022-12-04T14:34:39.737Z,80.16
2022-12-04T14:37:08.288Z,80.28
2022-12-04T14:39:41.793Z,80.57
2022-12-04T14:42:17.416Z,80.73
2022-12-04T14:44:52.677Z,80.74
2022-12-04T14:47:31.785Z,80.85
2022-12-04T14:50:14.503Z,80.43
2022-12-04T14:52:50.923Z,80.58
2022-12-04T14:55:28.015Z,80.67
2022-12-04T14:58:21.841Z,80.56
2022-12-04T15:00:54.482Z,80.06
2022-12-04T15:03:23.190Z,80.84
2022-12-04T15:05:51.879Z,80.56
2022-12-04T15:08:20.418Z,80.78
2022-12-04T15:11:08.738Z,80.83
2022-12-04T15:13:39.840Z,81.67
2022-12-04T15:16:17.066Z,81.14
2022-12-04T15:18:54.973Z,80.68
2022-12-04T15:21:23.483Z,81.52
2022-12-04T15:23:51.626Z,81.14
2022-12-04T15:26:21.731Z,80.95
2022-12-04T15:28:53.894Z,80.94
2022-12-04T15:31:24.851Z,81.27
2022-12-04T15:33:56.878Z,80.80
2022-12-04T15:36:40.759Z,80.76
2022-12-04T15:39:08.860Z,81.19
2022-12-04T15:41:38.285Z,80.85
2022-12-04T15:44:28.577Z,80.48
2022-12-04T15:46:59.121Z,81.13
2022-12-04T15:49:29.003Z,81.17
2022-12-04T15:52:06.593Z,80.62
2022-12-04T15:54:36.831Z,80.53
2022-12-04T15:57:07.786Z,80.18
2022-12-04T15:59:40.927Z,80.25
2022-12-04T16:02:23.573Z,81.01
2022-12-04T16:04:51.746Z,80.95
2022-12-04T16:07:24.413Z,80.70
2022-12-04T16:10:01.086Z,81.06
2022-12-04T16:12:33.143Z,80.50
2022-12-04T16:15:02.436Z,80.52
2022-12-04T16:17:32.539Z,80.57
2022-12-04T16:20:01.859Z,80.93
2022-12-04T16:22:31.477Z,81.40
2022-12-04T16:24:59.696Z,81.35
2022-12-04T16:27:28.010Z,81.32
2022-12-04T16:29:56.170Z,81.82
2022-12-04T16:32:29.952Z,81.81
2022-12-04T16:34:58.051Z,82.14
2022-12-04T16:37:27.793Z,82.41
2022-12-04T16:39:55.982Z,81.53
2022-12-04T16:42:26.381Z,81.47
2022-12-04T16:44:54.566Z,82.09
2022-12-04T16:47:23.147Z,81.95
2022-12-04T16:49:53.432Z,82.11
2022-12-04T16:52:22.024Z,82.22
2022-12-04T16:54:49.963Z,82.83
2022-12-04T16:57:17.876Z,83.27
2022-12-04T16:59:45.996Z,84.57
2022-12-04T17:02:19.051Z,84.79
2022-12-04T17:04:48.697Z,84.56
2022-12-04T17:07:19.717Z,85.85
2022-12-04T17:09:47.771Z,85.60
2022-12-04T17:12:15.660Z,85.83
2022-12-04T17:14:43.735Z,86.02
2022-12-04T17:17:11.655Z,86.86
2022-12-04T17:19:39.740Z,86.65
2022-12-04T17:22:07.992Z,87.55
2022-12-04T17:24:43.249Z,87.21
2022-12-04T17:27:25.317Z,87.44
2022-12-04T17:29:53.250Z,89.08
2022-12-04T17:32:23.721Z,89.17
2022-12-04T17:34:54.399Z,88.50
2022-12-04T17:37:26.620Z,88.46
2022-12-04T17:39:55.885Z,88.44
2022-12-04T17:42:24.007Z,88.27
2022-12-04T17:44:52.139Z,88.77
2022-12-04T17:47:20.343Z,87.96
2022-12-04T17:49:48.327Z,88.33
2022-12-04T17:52:16.509Z,89.41
2022-12-04T17:54:44.385Z,89.01
2022-12-04T17:57:13.789Z,88.95
2022-12-04T18:00:00.261Z,88.97
2022-12-04T18:02:28.302Z,90.01
2022-12-04T18:04:56.525Z,90.73
2022-12-04T18:07:24.576Z,90.94
2022-12-04T18:09:52.644Z,91.78
2022-12-04T18:12:23.244Z,90.81
2022-12-04T18:14:51.183Z,89.64
2022-12-04T18:17:20.831Z,90.42
2022-12-04T18:19:48.776Z,90.28
2022-12-04T18:22:16.695Z,90.53
2022-12-04T18:24:44.887Z,91.39
2022-12-04T18:27:12.807Z,90.02
2022-12-04T18:29:42.234Z,89.72
2022-12-04T18:32:10.310Z,89.27
2022-12-04T18:34:38.579Z,89.54
2022-12-04T18:37:06.578Z,89.33
2022-12-04T18:39:34.472Z,89.62
2022-12-04T18:42:02.267Z,89.01
2022-12-04T18:44:32.126Z,89.19
2022-12-04T18:47:01.363Z,89.04
2022-12-04T18:49:29.188Z,89.62
2022-12-04T18:52:00.233Z,89.91
2022-12-04T18:54:28.089Z,90.19
2022-12-04T18:56:56.000Z,88.53
2022-12-04T18:59:25.817Z,89.91
2022-12-04T19:01:56.021Z,90.18
2022-12-04T19:04:26.595Z,89.01
2022-12-04T19:06:56.898Z,88.86
2022-12-04T19:09:54.263Z,89.54
2022-12-04T19:12:15.119Z,89.19
2022-12-04T19:14:43.402Z,88.79
2022-12-04T19:17:11.670Z,87.98
2022-12-04T19:19:41.387Z,88.13
2022-12-04T19:22:09.210Z,88.49
2022-12-04T19:24:37.337Z,88.03
2022-12-04T19:27:11.183Z,87.73
2022-12-04T19:29:40.061Z,87.56
2022-12-04T19:32:08.389Z,87.44
2022-12-04T19:34:36.905Z,87.29
2022-12-04T19:37:07.424Z,88.96
2022-12-04T19:39:35.257Z,88.74
2022-12-04T19:42:03.026Z,87.97
2022-12-04T19:47:19.707Z,87.14
2022-12-04T19:49:47.579Z,87.54
2022-12-04T19:52:17.866Z,87.83
2022-12-04T19:54:46.438Z,87.52
2022-12-04T19:57:14.834Z,86.61
2022-12-04T19:59:46.193Z,86.89
2022-12-04T20:02:15.028Z,87.54
2022-12-04T20:04:43.223Z,87.87
2022-12-04T20:07:11.222Z,87.58
2022-12-04T20:09:40.791Z,88.36
2022-12-04T20:12:09.090Z,89.19
2022-12-04T20:14:37.123Z,87.81
2022-12-04T20:17:05.521Z,88.10
2022-12-04T20:19:33.639Z,87.47
2022-12-04T20:22:03.059Z,87.15
2022-12-04T20:24:30.959Z,87.12
2022-12-04T20:27:00.102Z,87.27
2022-12-04T20:29:28.273Z,87.49
2022-12-04T20:31:56.216Z,88.09
2022-12-04T20:34:24.087Z,88.01
2022-12-04T20:36:52.194Z,86.90
2022-12-04T20:39:21.073Z,86.72
2022-12-04T20:41:49.337Z,86.85
2022-12-04T20:44:20.139Z,86.93
2022-12-04T20:46:48.999Z,86.86
2022-12-04T20:49:22.121Z,87.44
2022-12-04T20:51:52.448Z,87.63
2022-12-04T20:54:22.135Z,87.89
2022-12-04T20:56:52.920Z,86.65
2022-12-04T20:59:24.333Z,86.69
2022-12-04T21:01:53.208Z,87.89
2022-12-04T21:04:21.636Z,88.20
2022-12-04T21:06:49.520Z,86.45
2022-12-04T21:09:19.776Z,87.32
2022-12-04T21:11:50.268Z,86.31
2022-12-04T21:14:37.905Z,87.11
2022-12-04T21:17:09.550Z,87.50
2022-12-04T21:19:38.247Z,86.45
2022-12-04T21:22:06.434Z,87.01
2022-12-04T21:24:38.421Z,87.31
2022-12-04T21:27:07.847Z,86.67
2022-12-04T21:29:36.212Z,86.91
2022-12-04T21:32:04.796Z,89.35
2022-12-04T21:34:34.367Z,87.84
2022-12-04T21:37:02.527Z,87.77
2022-12-04T21:42:34.458Z,91.16
2022-12-04T21:45:04.568Z,89.13
2022-12-04T21:47:32.953Z,89.36
2022-12-04T21:50:02.285Z,90.11
2022-12-04T21:52:30.235Z,90.36
2022-12-04T21:54:58.061Z,90.17
2022-12-04T21:57:26.190Z,91.30
2022-12-04T21:59:54.369Z,91.05
2022-12-04T22:02:22.573Z,91.26
2022-12-04T22:04:50.447Z,90.69
2022-12-04T22:07:19.683Z,91.71
2022-12-04T22:09:47.554Z,91.61
2022-12-04T22:12:41.261Z,91.54
2022-12-04T22:15:03.364Z,91.30
2022-12-04T22:17:31.414Z,92.52
2022-12-04T22:19:59.678Z,91.94
2022-12-04T22:22:29.069Z,92.30
2022-12-04T22:24:56.822Z,92.52
2022-12-04T22:27:24.688Z,92.40
2022-12-04T22:29:52.791Z,92.69
2022-12-04T22:32:21.158Z,92.92
2022-12-04T22:34:49.510Z,91.96
2022-12-04T22:37:17.411Z,91.86
2022-12-04T22:39:46.630Z,92.81
2022-12-04T22:42:14.464Z,93.13
2022-12-04T22:44:42.331Z,93.62
2022-12-04T22:47:10.208Z,93.47
2022-12-04T22:49:38.199Z,93.29
2022-12-04T22:52:06.289Z,92.69
2022-12-04T22:54:34.295Z,93.26
2022-12-04T22:57:03.494Z,93.40
2022-12-04T22:59:31.667Z,93.62
2022-12-04T23:02:00.279Z,93.54
2022-12-04T23:04:28.476Z,93.02
2022-12-04T23:06:56.424Z,93.40
2022-12-04T23:09:25.997Z,94.42
2022-12-04T23:11:55.273Z,94.09
2022-12-04T23:14:24.952Z,94.15
2022-12-04T23:16:52.863Z,94.13
2022-12-04T23:19:22.349Z,94.23
2022-12-04T23:21:56.689Z,94.28
2022-12-04T23:24:35.056Z,93.78
2022-12-04T23:27:02.862Z,93.75
2022-12-04T23:32:19.945Z,93.55
2022-12-04T23:34:47.782Z,93.99
2022-12-04T23:37:15.900Z,93.77
2022-12-04T23:39:44.012Z,93.81
2022-12-04T23:42:11.885Z,94.09
2022-12-04T23:44:41.092Z,93.42
2022-12-04T23:47:09.243Z,93.69
2022-12-04T23:49:37.407Z,93.72
2022-12-04T23:52:08.314Z,93.99
2022-12-04T23:54:37.623Z,93.72
2022-12-04T23:57:05.529Z,94.01
2022-12-04T23:59:33.414Z,93.61
